createdAt,value
2018-09-04T00:00:54.321Z,19.5
2018-09-04T00:01:55.432Z,19.5
2018-09-04T00:02:56.643Z,19.5
2018-09-04T00:03:57.835Z,19.5
2018-09-04T00:04:59.095Z,19.5
2018-09-04T00:06:00.252Z,19.5
2018-09-04T00:07:01.421Z,19.5
2018-09-04T00:08:02.910Z,19.5
2018-09-04T00:09:04.055Z,19.5
2018-09-04T00:10:05.260Z,19.4
2018-09-04T00:11:06.426Z,19.4
2018-09-04T00:12:07.586Z,19.4
2018-09-04T00:13:08.821Z,19.5
2018-09-04T00:14:10.051Z,19.5
2018-09-04T00:15:11.164Z,19.5
2018-09-04T00:16:12.343Z,19.4
2018-09-04T00:17:13.507Z,19.4
2018-09-04T00:18:14.715Z,19.4
2018-09-04T00:19:15.851Z,19.4
2018-09-04T00:20:16.976Z,19.4
2018-09-04T00:21:18.107Z,19.4
2018-09-04T00:22:19.314Z,19.4
2018-09-04T00:23:20.480Z,19.4
2018-09-04T00:24:21.631Z,19.5
2018-09-04T00:25:22.784Z,19.5
2018-09-04T00:26:23.954Z,19.5
2018-09-04T00:27:25.134Z,19.5
2018-09-04T00:28:26.343Z,19.5
2018-09-04T00:29:27.493Z,19.4
2018-09-04T00:30:28.635Z,19.5
2018-09-04T00:31:29.800Z,19.5
2018-09-04T00:32:30.939Z,19.4
2018-09-04T00:33:32.071Z,19.4
2018-09-04T00:34:33.306Z,19.5
2018-09-04T00:35:34.350Z,19.4
2018-09-04T00:36:35.509Z,19.4
2018-09-04T00:37:36.630Z,19.4
2018-09-04T00:38:38.068Z,19.3
2018-09-04T00:39:39.239Z,19.3
2018-09-04T00:40:40.355Z,19.4
2018-09-04T00:41:41.466Z,19.4
2018-09-04T00:42:42.580Z,19.4
2018-09-04T00:43:43.735Z,19.4
2018-09-04T00:44:44.831Z,19.3
2018-09-04T00:45:45.947Z,19.3
2018-09-04T00:46:47.049Z,19.3
2018-09-04T00:47:48.184Z,19.3
2018-09-04T00:48:49.654Z,19.4
2018-09-04T00:49:50.820Z,19.4
2018-09-04T00:50:51.939Z,19.3
2018-09-04T00:51:53.082Z,19.3
2018-09-04T00:52:54.205Z,19.3
2018-09-04T00:53:55.387Z,19.3
2018-09-04T00:54:56.488Z,19.3
2018-09-04T00:55:57.612Z,19.4
2018-09-04T00:56:58.705Z,19.3
2018-09-04T00:57:59.869Z,19.4
2018-09-04T00:59:01.113Z,19.4
2018-09-04T01:00:02.190Z,19.3
2018-09-04T01:01:03.375Z,19.3
2018-09-04T01:02:04.580Z,19.3
2018-09-04T01:03:05.691Z,19.4
2018-09-04T01:04:09.603Z,19.4
2018-09-04T01:05:10.707Z,19.4
2018-09-04T01:06:11.976Z,19.3
2018-09-04T01:07:13.305Z,19.3
2018-09-04T01:08:14.472Z,19.3
2018-09-04T01:09:15.623Z,19.3
2018-09-04T01:10:16.762Z,19.3
2018-09-04T01:11:17.915Z,19.3
2018-09-04T01:12:19.062Z,19.3
2018-09-04T01:13:20.242Z,19.3
2018-09-04T01:14:21.979Z,19.3
2018-09-04T01:15:23.120Z,19.3
2018-09-04T01:16:24.294Z,19.4
2018-09-04T01:17:28.322Z,19.3
2018-09-04T01:18:29.603Z,19.3
2018-09-04T01:19:30.758Z,19.3
2018-09-04T01:20:31.901Z,19.4
2018-09-04T01:21:33.014Z,19.4
2018-09-04T01:22:34.261Z,19.3
2018-09-04T01:23:35.871Z,19.4
2018-09-04T01:24:37.012Z,19.4
2018-09-04T01:25:38.113Z,19.3
2018-09-04T01:26:39.271Z,19.2
2018-09-04T01:27:40.402Z,19.2
2018-09-04T01:28:41.542Z,19.3
2018-09-04T01:29:42.723Z,19.3
2018-09-04T01:30:43.875Z,19.4
2018-09-04T01:31:44.997Z,19.2
2018-09-04T01:32:46.216Z,19.4
2018-09-04T01:33:47.356Z,19.4
2018-09-04T01:34:48.549Z,19.4
2018-09-04T01:35:49.723Z,19.4
2018-09-04T01:36:52.622Z,19.3
2018-09-04T01:37:53.741Z,19.3
2018-09-04T01:38:54.871Z,19.4
2018-09-04T01:39:56.066Z,19.4
2018-09-04T01:40:57.207Z,19.4
2018-09-04T01:41:58.438Z,19.4
2018-09-04T01:42:59.566Z,19.4
2018-09-04T01:44:00.787Z,19.4
2018-09-04T01:45:02.329Z,19.3
2018-09-04T01:46:03.492Z,19.4
2018-09-04T01:47:04.596Z,19.4
2018-09-04T01:48:05.743Z,19.4
2018-09-04T01:49:06.875Z,19.4
2018-09-04T01:50:08.051Z,19.4
2018-09-04T01:51:09.147Z,19.4
2018-09-04T01:52:10.354Z,19.4
2018-09-04T01:53:11.446Z,19.4
2018-09-04T01:54:12.527Z,19.3
2018-09-04T01:55:13.678Z,19.3
2018-09-04T01:56:14.797Z,19.3
2018-09-04T01:57:15.931Z,19.3
2018-09-04T01:58:17.039Z,19.3
2018-09-04T01:59:18.190Z,19.3
2018-09-04T02:00:19.349Z,19.4
2018-09-04T02:01:20.537Z,19.3
2018-09-04T02:02:21.784Z,19.4
2018-09-04T02:03:22.964Z,19.4
2018-09-04T02:04:24.096Z,19.4
2018-09-04T02:05:25.277Z,19.3
2018-09-04T02:06:26.418Z,19.5
2018-09-04T02:07:27.515Z,19.4
2018-09-04T02:08:28.683Z,19.4
2018-09-04T02:09:31.481Z,19.4
2018-09-04T02:10:33.230Z,19.5
2018-09-04T02:11:34.628Z,19.5
2018-09-04T02:12:35.741Z,19.3
2018-09-04T02:13:36.848Z,19.4
2018-09-04T02:14:37.970Z,19.5
2018-09-04T02:15:39.440Z,19.5
2018-09-04T02:16:40.591Z,19.4
2018-09-04T02:17:41.719Z,19.4
2018-09-04T02:18:42.856Z,19.4
2018-09-04T02:19:43.984Z,19.4
2018-09-04T02:20:45.238Z,19.5
2018-09-04T02:21:46.358Z,19.5
2018-09-04T02:22:47.468Z,19.5
2018-09-04T02:23:48.583Z,19.5
2018-09-04T02:24:49.731Z,19.5
2018-09-04T02:25:50.890Z,19.5
2018-09-04T02:26:52.078Z,19.5
2018-09-04T02:27:53.211Z,19.5
2018-09-04T02:28:54.331Z,19.5
2018-09-04T02:29:55.467Z,19.5
2018-09-04T02:30:56.805Z,19.6
2018-09-04T02:31:58.018Z,19.5
2018-09-04T02:32:59.262Z,19.5
2018-09-04T02:34:00.404Z,19.5
2018-09-04T02:35:01.539Z,19.5
2018-09-04T02:36:02.996Z,19.5
2018-09-04T02:37:04.137Z,19.5
2018-09-04T02:38:05.267Z,19.5
2018-09-04T02:39:06.388Z,19.5
2018-09-04T02:40:07.523Z,19.5
2018-09-04T02:41:08.686Z,19.5
2018-09-04T02:42:09.834Z,19.5
2018-09-04T02:43:10.986Z,19.5
2018-09-04T02:44:12.135Z,19.6
2018-09-04T02:45:13.279Z,19.5
2018-09-04T02:46:14.575Z,19.5
2018-09-04T02:47:15.850Z,19.5
2018-09-04T02:48:17.396Z,19.5
2018-09-04T02:49:18.518Z,19.5
2018-09-04T02:50:19.687Z,19.4
2018-09-04T02:51:20.864Z,19.5
2018-09-04T02:52:21.977Z,19.5
2018-09-04T02:53:23.101Z,19.5
2018-09-04T02:54:24.233Z,19.5
2018-09-04T02:55:25.403Z,19.5
2018-09-04T02:56:26.584Z,19.5
2018-09-04T02:57:27.743Z,19.5
2018-09-04T02:58:28.912Z,19.5
2018-09-04T02:59:30.081Z,19.5
2018-09-04T03:00:31.204Z,19.5
2018-09-04T03:01:32.341Z,19.5
2018-09-04T03:02:33.480Z,19.5
2018-09-04T03:03:34.588Z,19.5
2018-09-04T03:04:35.693Z,19.5
2018-09-04T03:05:36.857Z,19.5
2018-09-04T03:06:38.017Z,19.4
2018-09-04T03:07:41.144Z,19.4
2018-09-04T03:08:42.264Z,19.5
2018-09-04T03:09:43.379Z,19.4
2018-09-04T03:10:44.509Z,19.5
2018-09-04T03:11:45.691Z,19.5
2018-09-04T03:12:46.812Z,19.5
2018-09-04T03:13:47.996Z,19.4
2018-09-04T03:14:49.040Z,19.5
2018-09-04T03:15:50.280Z,19.5
2018-09-04T03:16:51.463Z,19.5
2018-09-04T03:17:52.603Z,19.5
2018-09-04T03:18:53.782Z,19.5
2018-09-04T03:19:54.945Z,19.4
2018-09-04T03:20:56.088Z,19.4
2018-09-04T03:21:57.245Z,19.4
2018-09-04T03:22:58.382Z,19.5
2018-09-04T03:23:59.521Z,19.5
2018-09-04T03:25:00.635Z,19.5
2018-09-04T03:26:01.788Z,19.5
2018-09-04T03:27:02.915Z,19.5
2018-09-04T03:28:04.055Z,19.5
2018-09-04T03:29:05.693Z,19.5
2018-09-04T03:30:06.821Z,19.5
2018-09-04T03:31:07.959Z,19.5
2018-09-04T03:32:09.151Z,19.5
2018-09-04T03:33:10.451Z,19.5
2018-09-04T03:34:11.579Z,19.5
2018-09-04T03:35:12.691Z,19.5
2018-09-04T03:36:13.876Z,19.4
2018-09-04T03:37:15.115Z,19.4
2018-09-04T03:38:16.243Z,19.4
2018-09-04T03:39:17.422Z,19.4
2018-09-04T03:40:18.551Z,19.4
2018-09-04T03:41:19.649Z,19.4
2018-09-04T03:42:20.906Z,19.4
2018-09-04T03:43:21.990Z,19.4
2018-09-04T03:44:23.386Z,19.4
2018-09-04T03:45:28.126Z,19.4
2018-09-04T03:46:29.295Z,19.4
2018-09-04T03:47:30.731Z,19.4
2018-09-04T03:48:31.840Z,19.3
2018-09-04T03:49:32.976Z,19.3
2018-09-04T03:50:34.201Z,19.3
2018-09-04T03:51:35.360Z,19.3
2018-09-04T03:52:36.520Z,19.4
2018-09-04T03:53:37.649Z,19.4
2018-09-04T03:54:38.765Z,19.4
2018-09-04T03:55:39.859Z,19.4
2018-09-04T03:56:40.979Z,19.4
2018-09-04T03:57:42.264Z,19.4
2018-09-04T03:58:43.558Z,19.3
2018-09-04T03:59:44.675Z,19.4
2018-09-04T04:00:45.832Z,19.3
2018-09-04T04:01:46.935Z,19.3
2018-09-04T04:02:48.071Z,19.4
2018-09-04T04:03:49.183Z,19.4
2018-09-04T04:04:50.319Z,19.4
2018-09-04T04:05:51.428Z,19.4
2018-09-04T04:06:52.529Z,19.5
2018-09-04T04:07:53.995Z,19.5
2018-09-04T04:08:55.088Z,19.5
2018-09-04T04:09:56.206Z,19.5
2018-09-04T04:10:57.305Z,19.4
2018-09-04T04:11:58.482Z,19.5
2018-09-04T04:12:59.651Z,19.5
2018-09-04T04:14:00.759Z,19.5
2018-09-04T04:15:01.931Z,19.5
2018-09-04T04:16:03.072Z,19.5
2018-09-04T04:17:04.339Z,19.5
2018-09-04T04:18:05.623Z,19.5
2018-09-04T04:19:06.739Z,19.5
2018-09-04T04:20:07.851Z,19.5
2018-09-04T04:21:08.988Z,19.5
2018-09-04T04:22:10.100Z,19.5
2018-09-04T04:23:11.240Z,19.5
2018-09-04T04:24:12.356Z,19.5
2018-09-04T04:25:13.479Z,19.5
2018-09-04T04:26:14.621Z,19.5
2018-09-04T04:27:15.794Z,19.5
2018-09-04T04:28:16.966Z,19.5
2018-09-04T04:29:18.139Z,19.5
2018-09-04T04:30:19.273Z,19.5
2018-09-04T04:31:20.471Z,19.5
2018-09-04T04:32:21.644Z,19.5
2018-09-04T04:33:22.870Z,19.6
2018-09-04T04:34:24.048Z,19.6
2018-09-04T04:35:25.171Z,19.6
2018-09-04T04:36:26.295Z,19.5
2018-09-04T04:37:27.436Z,19.5
2018-09-04T04:38:30.707Z,19.5
2018-09-04T04:39:34.366Z,19.5
2018-09-04T04:40:35.513Z,19.5
2018-09-04T04:41:36.661Z,19.5
2018-09-04T04:42:37.814Z,19.5
2018-09-04T04:43:39.072Z,19.5
2018-09-04T04:44:40.203Z,19.6
2018-09-04T04:45:41.372Z,19.6
2018-09-04T04:46:42.483Z,19.6
2018-09-04T04:47:43.670Z,19.6
2018-09-04T04:48:44.767Z,19.5
2018-09-04T04:49:45.925Z,19.5
2018-09-04T04:50:47.031Z,19.5
2018-09-04T04:51:48.146Z,19.5
2018-09-04T04:52:49.423Z,19.5
2018-09-04T04:53:50.680Z,19.3
2018-09-04T04:54:51.809Z,19.5
2018-09-04T04:55:52.929Z,19.6
2018-09-04T04:56:54.059Z,19.6
2018-09-04T04:57:55.178Z,19.5
2018-09-04T04:58:56.312Z,19.5
2018-09-04T04:59:57.452Z,19.5
2018-09-04T05:00:58.631Z,19.6
2018-09-04T05:02:01.924Z,19.6
2018-09-04T05:03:03.063Z,19.6
2018-09-04T05:04:04.270Z,19.6
2018-09-04T05:05:05.566Z,19.6
2018-09-04T05:06:06.727Z,19.6
2018-09-04T05:07:07.917Z,19.6
2018-09-04T05:08:09.032Z,19.6
2018-09-04T05:09:10.176Z,19.6
2018-09-04T05:10:11.343Z,19.7
2018-09-04T05:11:12.616Z,19.7
2018-09-04T05:12:13.694Z,19.7
2018-09-04T05:13:14.911Z,19.7
2018-09-04T05:14:16.124Z,19.7
2018-09-04T05:15:17.275Z,19.7
2018-09-04T05:16:18.482Z,19.7
2018-09-04T05:17:19.751Z,19.8
2018-09-04T05:18:20.986Z,19.8
2018-09-04T05:19:22.292Z,19.8
2018-09-04T05:20:23.442Z,19.9
2018-09-04T05:21:24.984Z,19.9
2018-09-04T05:22:26.145Z,20
2018-09-04T05:23:27.418Z,20
2018-09-04T05:24:31.927Z,20.1
2018-09-04T05:25:33.101Z,20.1
2018-09-04T05:26:34.245Z,20.2
2018-09-04T05:27:35.387Z,20.2
2018-09-04T05:28:36.674Z,20.3
2018-09-04T05:29:38.236Z,20.3
2018-09-04T05:30:39.383Z,20.4
2018-09-04T05:31:40.565Z,20.4
2018-09-04T05:32:41.735Z,20.4
2018-09-04T05:33:42.824Z,20.5
2018-09-04T05:34:44.051Z,20.5
2018-09-04T05:35:45.175Z,20.5
2018-09-04T05:36:46.613Z,20.5
2018-09-04T05:37:47.771Z,20.6
2018-09-04T05:38:48.913Z,20.6
2018-09-04T05:39:50.084Z,20.5
2018-09-04T05:40:51.252Z,20.7
2018-09-04T05:41:52.818Z,20.7
2018-09-04T05:42:54.057Z,20.8
2018-09-04T05:43:55.179Z,20.9
2018-09-04T05:44:56.590Z,21
2018-09-04T05:45:57.748Z,21
2018-09-04T05:46:58.896Z,21
2018-09-04T05:48:00.033Z,21.1
2018-09-04T05:49:01.196Z,21
2018-09-04T05:50:02.391Z,21.1
2018-09-04T05:51:03.561Z,21.2
2018-09-04T05:52:04.726Z,21.3
2018-09-04T05:53:05.900Z,21.4
2018-09-04T05:54:07.078Z,21.5
2018-09-04T05:55:08.281Z,21.5
2018-09-04T05:56:09.360Z,21.6
2018-09-04T05:57:10.540Z,21.7
2018-09-04T05:58:11.741Z,21.7
2018-09-04T05:59:12.906Z,21.8
2018-09-04T06:00:14.094Z,22
2018-09-04T06:01:15.282Z,22
2018-09-04T06:02:16.387Z,22.1
2018-09-04T06:03:17.540Z,22.1
2018-09-04T06:04:18.666Z,22.1
2018-09-04T06:05:19.843Z,22.2
2018-09-04T06:06:22.955Z,22.3
2018-09-04T06:07:24.163Z,22.2
2018-09-04T06:08:29.443Z,22.3
2018-09-04T06:09:30.565Z,22.3
2018-09-04T06:10:31.796Z,22.3
2018-09-04T06:11:35.475Z,22.4
2018-09-04T06:12:36.668Z,22.2
2018-09-04T06:13:37.810Z,22.2
2018-09-04T06:14:39.008Z,22.4
2018-09-04T06:15:40.244Z,22.6
2018-09-04T06:16:44.225Z,22.9
2018-09-04T06:17:45.364Z,23
2018-09-04T06:18:46.477Z,22.7
2018-09-04T06:19:47.648Z,22.7
2018-09-04T06:20:48.809Z,22.7
2018-09-04T06:21:49.969Z,22.8
2018-09-04T06:22:51.122Z,22.9
2018-09-04T06:23:52.315Z,23.3
2018-09-04T06:24:56.477Z,23
2018-09-04T06:25:57.674Z,22.8
2018-09-04T06:26:58.829Z,23
2018-09-04T06:28:00.021Z,23.2
2018-09-04T06:29:01.324Z,23.3
2018-09-04T06:30:05.263Z,23.5
2018-09-04T06:31:06.481Z,23.5
2018-09-04T06:32:07.628Z,23.4
2018-09-04T06:33:08.984Z,23.6
2018-09-04T06:34:10.168Z,23.5
2018-09-04T06:35:11.232Z,23.9
2018-09-04T06:36:12.491Z,23.9
2018-09-04T06:37:13.605Z,23.9
2018-09-04T06:38:14.757Z,24.3
2018-09-04T06:39:15.913Z,24.2
2018-09-04T06:40:17.077Z,24.6
2018-09-04T06:41:18.243Z,24.5
2018-09-04T06:42:19.431Z,24.3
2018-09-04T06:43:20.575Z,24.2
2018-09-04T06:44:21.796Z,24.6
2018-09-04T06:45:22.936Z,24.3
2018-09-04T06:46:26.880Z,24.6
2018-09-04T06:47:28.015Z,24.5
2018-09-04T06:48:31.395Z,24.4
2018-09-04T06:49:39.480Z,24.7
2018-09-04T06:50:43.127Z,25.5
2018-09-04T06:51:45.019Z,25
2018-09-04T06:52:48.400Z,25
2018-09-04T06:53:49.548Z,25.2
2018-09-04T06:54:50.728Z,25.5
2018-09-04T06:55:52.158Z,25.3
2018-09-04T06:56:56.524Z,25.4
2018-09-04T06:57:57.803Z,25.2
2018-09-04T06:58:58.846Z,25.6
2018-09-04T06:59:59.967Z,25.7
2018-09-04T07:01:03.599Z,25.9
2018-09-04T07:02:04.845Z,26.2
2018-09-04T07:03:06.045Z,25.8
2018-09-04T07:04:07.168Z,25.3
2018-09-04T07:05:08.475Z,25.5
2018-09-04T07:06:09.808Z,25.5
2018-09-04T07:07:10.926Z,25.3
2018-09-04T07:08:12.181Z,25.3
2018-09-04T07:09:13.331Z,25.9
2018-09-04T07:10:15.464Z,26
2018-09-04T07:11:19.229Z,26.1
2018-09-04T07:12:20.739Z,26
2018-09-04T07:13:22.050Z,25.8
2018-09-04T07:14:23.163Z,25.7
2018-09-04T07:15:24.306Z,25.7
2018-09-04T07:16:25.635Z,25.7
2018-09-04T07:17:26.955Z,25.7
2018-09-04T07:18:28.843Z,25.6
2018-09-04T07:19:29.987Z,26.2
2018-09-04T07:20:31.107Z,26.1
2018-09-04T07:21:32.319Z,26
2018-09-04T07:22:36.617Z,26.4
2018-09-04T07:23:37.764Z,27
2018-09-04T07:24:41.713Z,27.2
2018-09-04T07:25:42.851Z,27
2018-09-04T07:26:43.998Z,27.4
2018-09-04T07:27:45.186Z,27.8
2018-09-04T07:28:46.399Z,28.1
2018-09-04T07:29:47.651Z,27.9
2018-09-04T07:30:51.342Z,27.5
2018-09-04T07:31:52.487Z,26.9
2018-09-04T07:32:53.653Z,26.9
2018-09-04T07:33:57.134Z,26.8
2018-09-04T07:34:58.307Z,26.7
2018-09-04T07:36:05.560Z,26.6
2018-09-04T07:37:07.287Z,26.6
2018-09-04T07:38:11.689Z,26.6
2018-09-04T07:39:14.395Z,26.6
2018-09-04T07:40:15.651Z,27.2
2018-09-04T07:41:16.814Z,27
2018-09-04T07:42:18.183Z,26.8
2018-09-04T07:43:21.060Z,26.8
2018-09-04T07:44:22.334Z,26.8
2018-09-04T07:45:23.628Z,27.6
2018-09-04T07:46:27.468Z,27.3
2018-09-04T07:47:28.797Z,27.1
2018-09-04T07:48:30.037Z,27.1
2018-09-04T07:49:39.519Z,27.3
2018-09-04T07:50:47.695Z,27.2
2018-09-04T07:51:48.833Z,27.2
2018-09-04T07:52:50.870Z,27.2
2018-09-04T07:53:52.353Z,27.3
2018-09-04T07:54:56.377Z,27.7
2018-09-04T07:55:57.556Z,27.6
2018-09-04T07:56:58.756Z,28.1
2018-09-04T07:58:00.030Z,28.2
2018-09-04T07:59:01.239Z,27.9
2018-09-04T08:00:02.612Z,27.7
2018-09-04T08:01:09.301Z,27.6
2018-09-04T08:02:10.482Z,27.9
2018-09-04T08:03:11.599Z,29
2018-09-04T08:04:12.863Z,28.7
2018-09-04T08:05:14.003Z,28.1
2018-09-04T08:06:17.263Z,27.9
2018-09-04T08:07:18.467Z,27.9
2018-09-04T08:08:19.628Z,28.2
2018-09-04T08:09:21.451Z,28.1
2018-09-04T08:10:22.651Z,28
2018-09-04T08:11:23.856Z,28.2
2018-09-04T08:12:25.060Z,28.6
2018-09-04T08:13:26.202Z,29.5
2018-09-04T08:14:30.266Z,28.8
2018-09-04T08:15:31.640Z,28.7
2018-09-04T08:16:32.813Z,29
2018-09-04T08:17:33.981Z,29.7
2018-09-04T08:18:35.085Z,29.9
2018-09-04T08:19:36.301Z,29.1
2018-09-04T08:20:38.658Z,28.8
2018-09-04T08:21:39.623Z,29.8
2018-09-04T08:22:40.768Z,30.6
2018-09-04T08:23:41.933Z,29.6
2018-09-04T08:24:43.087Z,29.4
2018-09-04T08:25:44.233Z,29
2018-09-04T08:26:48.606Z,28.7
2018-09-04T08:27:49.723Z,29.5
2018-09-04T08:28:50.836Z,30
2018-09-04T08:29:52.057Z,29.7
2018-09-04T08:30:53.245Z,29.1
2018-09-04T08:31:54.414Z,29.3
2018-09-04T08:32:59.024Z,29.1
2018-09-04T08:34:00.179Z,29.5
2018-09-04T08:35:01.469Z,29
2018-09-04T08:36:02.714Z,29
2018-09-04T08:37:03.832Z,29.5
2018-09-04T08:38:04.966Z,29.3
2018-09-04T08:39:06.090Z,29.2
2018-09-04T08:40:07.345Z,29.5
2018-09-04T08:41:09.429Z,29.4
2018-09-04T08:42:10.556Z,29.1
2018-09-04T08:43:11.672Z,29.1
2018-09-04T08:44:13.571Z,29
2018-09-04T08:45:14.877Z,29.1
2018-09-04T08:47:34.484Z,29.2
2018-09-04T08:48:35.629Z,29.3
2018-09-04T08:49:36.824Z,29.5
2018-09-04T08:50:38.066Z,29.2
2018-09-04T08:51:41.353Z,29.2
2018-09-04T08:52:43.821Z,30
2018-09-04T08:53:46.277Z,30.8
2018-09-04T08:54:48.814Z,30.7
2018-09-04T08:55:49.963Z,30.5
2018-09-04T08:56:51.088Z,30.1
2018-09-04T08:57:52.258Z,30.7
2018-09-04T08:58:53.396Z,29.9
2018-09-04T08:59:54.539Z,29.7
2018-09-04T09:00:58.227Z,29.4
2018-09-04T09:01:59.427Z,29.6
2018-09-04T09:03:00.604Z,30.7
2018-09-04T09:04:01.797Z,30.8
2018-09-04T09:05:05.383Z,31.1
2018-09-04T09:06:06.621Z,31.2
2018-09-04T09:07:10.311Z,30.5
2018-09-04T09:08:11.739Z,30
2018-09-04T09:09:17.634Z,29.6
2018-09-04T09:10:20.147Z,30
2018-09-04T09:11:21.514Z,29.7
2018-09-04T09:12:23.148Z,29.4
2018-09-04T09:13:27.558Z,29.2
2018-09-04T09:14:28.917Z,29.4
2018-09-04T09:15:52.045Z,29.7
2018-09-04T09:16:53.473Z,30
2018-09-04T09:17:54.852Z,30
2018-09-04T09:18:59.013Z,30.3
2018-09-04T09:20:00.379Z,30.3
2018-09-04T09:21:03.836Z,29.7
2018-09-04T09:22:08.009Z,29.4
2018-09-04T09:23:11.335Z,29.6
2018-09-04T09:24:12.488Z,29.5
2018-09-04T09:25:13.704Z,29.7
2018-09-04T09:26:20.446Z,30.1
2018-09-04T09:27:24.699Z,30.5
2018-09-04T09:28:28.800Z,30
2018-09-04T09:29:29.971Z,30.4
2018-09-04T09:30:32.108Z,29.7
2018-09-04T09:31:33.582Z,29.6
2018-09-04T09:32:39.695Z,29.4
2018-09-04T09:33:41.544Z,29.7
2018-09-04T09:34:42.831Z,30.4
2018-09-04T09:35:43.985Z,30.9
2018-09-04T09:36:45.313Z,30.7
2018-09-04T09:37:48.725Z,30.3
2018-09-04T09:38:52.510Z,30
2018-09-04T09:39:53.650Z,29.7
2018-09-04T09:40:57.136Z,29.7
2018-09-04T09:41:58.287Z,29.5
2018-09-04T09:42:59.464Z,29.5
2018-09-04T09:44:00.612Z,29.5
2018-09-04T09:45:01.952Z,29.5
2018-09-04T09:46:03.265Z,29.7
2018-09-04T09:47:07.177Z,29.5
2018-09-04T09:48:11.143Z,29.4
2018-09-04T09:49:12.655Z,29.6
2018-09-04T09:50:17.283Z,29.6
2018-09-04T09:51:24.501Z,29.9
2018-09-04T09:52:25.717Z,29.8
2018-09-04T09:53:27.024Z,29.6
2018-09-04T09:54:28.044Z,29.5
2018-09-04T09:55:32.045Z,29.7
2018-09-04T09:56:35.854Z,29.8
2018-09-04T09:57:39.475Z,30
2018-09-04T09:58:42.701Z,29.7
2018-09-04T09:59:43.970Z,29.5
2018-09-04T10:00:45.154Z,29.8
2018-09-04T10:01:46.332Z,29.8
2018-09-04T10:02:47.550Z,29.8
2018-09-04T10:03:48.794Z,29.4
2018-09-04T10:04:50.555Z,29.2
2018-09-04T10:05:51.690Z,29
2018-09-04T10:06:52.896Z,29.2
2018-09-04T10:07:58.608Z,29.1
2018-09-04T10:08:59.778Z,29.4
2018-09-04T10:10:00.920Z,29.4
2018-09-04T10:11:02.103Z,29.5
2018-09-04T10:12:07.508Z,29.3
2018-09-04T10:13:12.093Z,28.9
2018-09-04T10:14:20.322Z,29.1
2018-09-04T10:15:30.046Z,29.2
2018-09-04T10:16:31.381Z,29.5
2018-09-04T10:17:35.290Z,29.5
2018-09-04T10:18:36.463Z,29.6
2018-09-04T10:19:37.717Z,29.4
2018-09-04T10:20:41.124Z,29.3
2018-09-04T10:21:42.343Z,29.4
2018-09-04T10:22:43.717Z,29.3
2018-09-04T10:23:45.211Z,29.4
2018-09-04T10:24:47.906Z,29.4
2018-09-04T10:25:49.044Z,29.1
2018-09-04T10:26:50.208Z,29
2018-09-04T10:27:51.379Z,28.8
2018-09-04T10:28:53.884Z,28.6
2018-09-04T10:29:58.496Z,28.6
2018-09-04T10:31:02.671Z,28.6
2018-09-04T10:32:03.886Z,28.5
2018-09-04T10:33:07.764Z,28.5
2018-09-04T10:34:08.947Z,28.3
2018-09-04T10:35:10.210Z,28.3
2018-09-04T10:36:11.332Z,28.1
2018-09-04T10:37:15.260Z,28.6
2018-09-04T10:38:16.419Z,28.5
2018-09-04T10:39:20.338Z,28.6
2018-09-04T10:40:21.494Z,28.6
2018-09-04T10:41:22.764Z,28.6
2018-09-04T10:42:25.824Z,28.6
2018-09-04T10:43:27.033Z,28.4
2018-09-04T10:44:28.338Z,28.4
2018-09-04T10:45:33.368Z,28.4
2018-09-04T10:46:37.332Z,28.5
2018-09-04T10:47:41.240Z,28.4
2018-09-04T10:48:45.201Z,28.2
2018-09-04T10:49:46.330Z,28.4
2018-09-04T10:50:50.530Z,28.5
2018-09-04T10:51:51.666Z,28.6
2018-09-04T10:52:53.300Z,28.7
2018-09-04T10:53:54.432Z,28.7
2018-09-04T10:54:55.626Z,28.7
2018-09-04T10:55:56.986Z,28.7
2018-09-04T10:56:59.332Z,28.6
2018-09-04T10:58:00.857Z,28.6
2018-09-04T10:59:02.045Z,28.7
2018-09-04T11:00:03.322Z,28.8
2018-09-04T11:01:04.529Z,28.7
2018-09-04T11:02:05.684Z,28.8
2018-09-04T11:03:06.831Z,28.7
2018-09-04T11:04:10.891Z,28.8
2018-09-04T11:05:12.081Z,28.6
2018-09-04T11:06:16.348Z,28.8
2018-09-04T11:07:17.513Z,28.7
2018-09-04T11:08:18.701Z,28.6
2018-09-04T11:09:19.935Z,28.7
2018-09-04T11:10:23.343Z,28.6
2018-09-04T11:11:24.616Z,28.5
2018-09-04T11:12:25.911Z,28.5
2018-09-04T11:13:29.376Z,28.5
2018-09-04T11:14:30.565Z,28.5
2018-09-04T11:15:34.001Z,28.7
2018-09-04T11:16:35.267Z,28.7
2018-09-04T11:17:36.563Z,28.8
2018-09-04T11:18:40.105Z,28.8
2018-09-04T11:19:42.012Z,28.8
2018-09-04T11:20:43.168Z,28.8
2018-09-04T11:21:44.378Z,28.9
2018-09-04T11:22:48.526Z,28.9
2018-09-04T11:23:49.903Z,28.9
2018-09-04T11:24:51.311Z,29
2018-09-04T11:25:52.932Z,29
2018-09-04T11:26:54.401Z,28.9
2018-09-04T11:27:55.549Z,28.9
2018-09-04T11:28:56.729Z,28.8
2018-09-04T11:29:57.872Z,28.9
2018-09-04T11:31:00.091Z,28.9
2018-09-04T11:32:01.286Z,28.9
2018-09-04T11:33:02.468Z,29
2018-09-04T11:34:04.007Z,28.9
2018-09-04T11:35:05.184Z,28.9
2018-09-04T11:36:06.462Z,28.8
2018-09-04T11:37:07.824Z,28.7
2018-09-04T11:38:09.022Z,28.9
2018-09-04T11:39:16.055Z,28.8
2018-09-04T11:40:19.653Z,29
2018-09-04T11:41:20.833Z,29.1
2018-09-04T11:42:21.989Z,28.8
2018-09-04T11:43:23.134Z,29
2018-09-04T11:44:24.275Z,29
2018-09-04T11:45:28.215Z,29
2018-09-04T11:46:29.383Z,29
2018-09-04T11:47:30.569Z,28.8
2018-09-04T11:48:31.682Z,28.9
2018-09-04T11:49:32.904Z,29
2018-09-04T11:50:34.858Z,29
2018-09-04T11:51:35.988Z,28.9
2018-09-04T11:52:39.412Z,28.9
2018-09-04T11:53:43.515Z,28.9
2018-09-04T11:54:47.417Z,28.9
2018-09-04T11:55:48.570Z,29
2018-09-04T11:56:49.723Z,29
2018-09-04T11:57:50.869Z,29
2018-09-04T11:58:52.024Z,29
2018-09-04T11:59:55.412Z,29
2018-09-04T12:01:01.135Z,29
2018-09-04T12:02:02.375Z,29
2018-09-04T12:03:04.724Z,28.9
2018-09-04T12:04:05.909Z,28.9
2018-09-04T12:05:14.577Z,28.9
2018-09-04T12:06:17.884Z,28.9
2018-09-04T12:07:20.130Z,28.8
2018-09-04T12:08:21.331Z,28.9
2018-09-04T12:09:22.461Z,28.8
2018-09-04T12:10:23.683Z,29
2018-09-04T12:11:24.832Z,29
2018-09-04T12:12:25.999Z,28.9
2018-09-04T12:13:27.119Z,28.9
2018-09-04T12:14:28.243Z,28.9
2018-09-04T12:15:29.396Z,28.8
2018-09-04T12:16:30.566Z,29
2018-09-04T12:17:31.790Z,29
2018-09-04T12:18:32.924Z,28.9
2018-09-04T12:19:36.588Z,28.8
2018-09-04T12:20:43.320Z,28.8
2018-09-04T12:21:44.391Z,28.9
2018-09-04T12:22:45.550Z,28.9
2018-09-04T12:23:46.708Z,28.9
2018-09-04T12:24:47.917Z,29
2018-09-04T12:25:49.027Z,28.9
2018-09-04T12:26:52.395Z,28.9
2018-09-04T12:27:58.364Z,28.9
2018-09-04T12:28:59.511Z,28.9
2018-09-04T12:30:00.630Z,28.9
2018-09-04T12:31:01.761Z,28.8
2018-09-04T12:32:03.951Z,28.9
2018-09-04T12:33:05.088Z,29
2018-09-04T12:34:08.756Z,28.9
2018-09-04T12:35:09.910Z,28.9
2018-09-04T12:36:11.103Z,28.8
2018-09-04T12:37:12.243Z,28.8
2018-09-04T12:38:13.430Z,28.9
2018-09-04T12:39:14.576Z,28.9
2018-09-04T12:40:18.190Z,28.9
2018-09-04T12:41:19.343Z,28.8
2018-09-04T12:42:20.527Z,28.8
2018-09-04T12:43:24.082Z,28.9
2018-09-04T12:44:25.249Z,29
2018-09-04T12:45:29.139Z,28.9
2018-09-04T12:46:30.278Z,28.8
2018-09-04T12:47:31.405Z,28.9
2018-09-04T12:48:35.440Z,28.9
2018-09-04T12:49:36.486Z,28.9
2018-09-04T12:50:37.631Z,29
2018-09-04T12:51:41.151Z,29
2018-09-04T12:52:42.274Z,28.9
2018-09-04T12:53:43.494Z,29
2018-09-04T12:54:45.013Z,28.9
2018-09-04T12:55:46.081Z,28.9
2018-09-04T12:56:47.215Z,28.9
2018-09-04T12:57:48.375Z,28.9
2018-09-04T12:58:49.546Z,28.8
2018-09-04T12:59:50.772Z,28.8
2018-09-04T13:00:57.211Z,28.8
2018-09-04T13:01:58.338Z,28.8
2018-09-04T13:02:59.470Z,28.7
2018-09-04T13:04:03.632Z,28.8
2018-09-04T13:05:12.287Z,28.8
2018-09-04T13:06:13.459Z,28.9
2018-09-04T13:07:19.128Z,28.8
2018-09-04T13:08:20.405Z,28.8
2018-09-04T13:09:21.563Z,28.9
2018-09-04T13:10:22.757Z,28.9
2018-09-04T13:11:24.001Z,28.9
2018-09-04T13:12:27.660Z,28.9
2018-09-04T13:13:31.286Z,28.9
2018-09-04T13:14:33.816Z,28.8
2018-09-04T13:15:37.667Z,28.8
2018-09-04T13:16:38.783Z,28.8
2018-09-04T13:17:39.910Z,28.7
2018-09-04T13:18:43.311Z,28.8
2018-09-04T13:19:44.509Z,28.8
2018-09-04T13:20:45.672Z,28.9
2018-09-04T13:21:46.827Z,28.9
2018-09-04T13:22:49.925Z,28.9
2018-09-04T13:23:51.105Z,28.7
2018-09-04T13:24:52.225Z,28.9
2018-09-04T13:25:56.155Z,28.9
2018-09-04T13:26:57.292Z,28.9
2018-09-04T13:28:01.561Z,28.9
2018-09-04T13:29:02.698Z,28.9
2018-09-04T13:30:03.838Z,28.9
2018-09-04T13:31:05.048Z,28.9
2018-09-04T13:32:06.168Z,28.9
2018-09-04T13:33:07.292Z,28.9
2018-09-04T13:34:08.449Z,28.9
2018-09-04T13:35:09.579Z,28.9
2018-09-04T13:36:10.788Z,28.9
2018-09-04T13:37:17.163Z,28.9
2018-09-04T13:38:20.775Z,28.7
2018-09-04T13:39:26.093Z,28.8
2018-09-04T13:40:27.864Z,28.7
2018-09-04T13:41:29.008Z,28.7
2018-09-04T13:42:30.165Z,28.7
2018-09-04T13:43:34.302Z,28.7
2018-09-04T13:44:35.402Z,28.7
2018-09-04T13:45:36.495Z,28.8
2018-09-04T13:46:37.697Z,28.9
2018-09-04T13:47:39.828Z,28.9